Terminal Aerodrome Forecast
Issued by NWS

Home | Current Version | Previous Version | Text Only | Print | Product List | Glossary On
Versions: 1 2 3 4 5 6 7 8 9 10 11 12 13 14 15 16 17 18 19 20 21 22
000
FTPA31 PHFO 312300
TAFJHM
TAF
PHJH 312339Z 0100/0124 07014G20KT P6SM FEW025 SCT045
     FM010500 07012KT P6SM FEW025 SCT040
     FM012000 07015G22KT P6SM VCSH FEW025 BKN045
      AMD NOT SKED AFT 010400=

USA.gov is the U.S. government's official web portal to all federal, state and local government web resources and services.